Météo Nord-Pas-de-Calais   La météo au plus près de chez vous

Station météorologique

Observations météo à Brive-Souillac (19147)

19147001 295 m Dernier relevé à 10:00
22.1°C
Humidité 69 % Vent 1.8 km/h 1023.5 hPa

Journée consultée

Samedi 5 Septembre 2026

Synthèse de la journée

Périodes de référence en UTC

Température maximale

22.1°C

à 10:00

06h 06h

Température minimale

13.6°C

à 07:42

18h 18h

Rafale maximale

12 km/h

à 09:36

00h 00h

Précipitations

0 mm

Cumul quotidien

06h 06h

Graphiques de la journée

Heure locale Réduire

Données détaillées

Relevés météo

Pas de 6 minutes Afficher les relevés infra-horaires
Relevés météo détaillés à Brive-Souillac pour le Samedi 5 Septembre 2026
Heure Température °C Point de rosée °C Humidité % Vent moyen (raf.), km/h Précipitations mm Visibilité m Pression hPa
10:00 22.1 °C 13.2 °C 57 % 5 km/h (12 km/h) 0 mm0 mm 60000 m 1023.4 hPa
09:54 21.7 °C 13.6 °C 60 % 5 km/h (12 km/h) 0 mm0 mm 60000 m 1023.3 hPa
09:48 21.4 °C 13.3 °C 60 % 6 km/h (8 km/h) 0 mm0 mm 60000 m 1023.3 hPa
09:42 20.9 °C 13.3 °C 62 % 6 km/h (10 km/h) 0 mm0 mm 60000 m 1023.4 hPa
09:36 20.6 °C 13.1 °C 62 % 6 km/h (12 km/h) 0 mm0 mm 60000 m 1023.5 hPa
09:30 20.2 °C 13.4 °C 65 % 6 km/h (9 km/h) 0 mm0 mm 60000 m 1023.5 hPa
09:24 19.6 °C 13.3 °C 67 % 7 km/h (10 km/h) 0 mm0 mm 60000 m 1023.5 hPa
09:18 19.4 °C 13.1 °C 67 % 6 km/h (10 km/h) 0 mm0 mm 60000 m 1023.5 hPa
09:12 19.3 °C 13.2 °C 68 % 5 km/h (7 km/h) 0 mm0 mm 60000 m 1023.5 hPa
09:06 19.2 °C 13.4 °C 69 % 4 km/h (6 km/h) 0 mm0 mm 60000 m 1023.5 hPa
09:00 18.9 °C 13.1 °C 69 % 2 km/h (4 km/h) 0 mm0 mm 60000 m 1023.5 hPa
08:54 17.8 °C 12.9 °C 73 % 2 km/h (5 km/h) 0 mm0 mm 60000 m 1023.6 hPa
08:48 17.5 °C 12.6 °C 73 % 3 km/h (5 km/h) 0 mm0 mm 60000 m 1023.6 hPa
08:42 17 °C 13.1 °C 78 % 2 km/h (4 km/h) 0 mm0 mm 60000 m 1023.6 hPa
08:36 16.3 °C 12.5 °C 78 % 2 km/h (2 km/h) 0 mm0 mm 60000 m 1023.7 hPa
08:30 16 °C 12.4 °C 79 % 0 km/h (2 km/h) 0 mm0 mm 60000 m 1023.6 hPa
08:24 15.5 °C 12.3 °C 81 % 0 km/h (2 km/h) 0 mm0 mm 60000 m 1023.6 hPa
08:18 15.1 °C 11.9 °C 81 % 0 km/h (4 km/h) 0 mm0 mm 60000 m 1023.7 hPa
08:12 15 °C 11.8 °C 81 % 2 km/h (4 km/h) 0 mm0 mm 60000 m 1023.8 hPa
08:06 14.4 °C 11.7 °C 84 % 0 km/h (2 km/h) 0 mm0 mm 60000 m 1023.7 hPa
08:00 14.2 °C 11.4 °C 83 % 0 km/h (3 km/h) 0 mm0 mm 60000 m 1023.7 hPa
07:54 14.3 °C 11.6 °C 84 % 2 km/h (4 km/h) 0 mm0 mm 60000 m 1023.5 hPa
07:48 13.8 °C 11.5 °C 86 % 0 km/h (3 km/h) 0 mm0 mm 60000 m 1023.6 hPa
07:42 13.6 °C 11.3 °C 86 % 0 km/h (3 km/h) 0 mm0 mm 60000 m 1023.6 hPa
07:36 13.7 °C 11.4 °C 86 % 0 km/h (3 km/h) 0 mm0 mm 60000 m 1023.6 hPa
07:30 13.7 °C 11.4 °C 86 % 0 km/h (3 km/h) 0 mm0 mm 60000 m 1023.5 hPa
07:24 14.1 °C 11.4 °C 84 % 0 km/h (4 km/h) 0 mm0 mm 60000 m 1023.5 hPa
07:18 14.2 °C 11.4 °C 83 % 2 km/h (5 km/h) 0 mm0 mm 60000 m 1023.4 hPa
07:12 14.6 °C 11.7 °C 83 % 3 km/h (5 km/h) 0 mm0 mm 60000 m 1023.2 hPa
07:06 14.7 °C 11.8 °C 83 % 4 km/h (7 km/h) 0 mm0 mm 60000 m 1023.1 hPa
07:00 14.9 °C 11.9 °C 82 % 6 km/h (8 km/h) 0 mm0 mm 60000 m 1022.9 hPa
06:54 14.9 °C 12 °C 83 % 8 km/h (8 km/h) 0 mm0 mm 60000 m 1022.9 hPa
06:48 15.1 °C 12.2 °C 83 % 8 km/h (11 km/h) 0 mm0 mm 60000 m 1022.8 hPa
06:42 15.2 °C 12.3 °C 83 % 10 km/h (11 km/h) 0 mm0 mm 60000 m 1022.8 hPa
06:36 15 °C 11.9 °C 82 % 10 km/h (11 km/h) 0 mm0 mm 60000 m 1022.9 hPa
06:30 15.3 °C 12.1 °C 81 % 8 km/h (11 km/h) 0 mm0 mm 60000 m 1022.8 hPa
06:24 15.3 °C 11.9 °C 80 % 6 km/h (9 km/h) 0 mm0 mm 60000 m 1022.7 hPa
06:18 15.5 °C 11.7 °C 78 % 7 km/h (9 km/h) 0 mm0 mm 60000 m 1022.7 hPa
06:12 15.5 °C 11.9 °C 79 % 8 km/h (9 km/h) 0 mm0 mm 60000 m 1022.7 hPa
06:06 15.3 °C 11.7 °C 79 % 9 km/h (10 km/h) 0 mm0 mm 60000 m 1022.7 hPa
06:00 15.5 °C 11.7 °C 78 % 9 km/h (10 km/h) 0 mm0 mm 60000 m 1022.7 hPa
05:54 15.8 °C 11.8 °C 77 % 9 km/h (11 km/h) 0 mm0 mm 60000 m 1022.5 hPa
05:48 15.9 °C 11.9 °C 77 % 10 km/h (11 km/h) 0 mm0 mm 60000 m 1022.5 hPa
05:42 15.9 °C 11.7 °C 76 % 9 km/h (11 km/h) 0 mm0 mm 60000 m 1022.5 hPa
05:36 16.1 °C 11.5 °C 74 % 8 km/h (10 km/h) 0 mm0 mm 60000 m 1022.5 hPa
05:30 15.7 °C 11.5 °C 76 % 9 km/h (10 km/h) 0 mm0 mm 60000 m 1022.4 hPa
05:24 14.8 °C 11 °C 78 % 6 km/h (10 km/h) 0 mm0 mm 60000 m 1022.5 hPa
05:18 14.7 °C 10.9 °C 78 % 4 km/h (7 km/h) 0 mm0 mm 60000 m 1022.5 hPa
05:12 14.6 °C 10.8 °C 78 % 4 km/h (5 km/h) 0 mm0 mm 60000 m 1022.5 hPa
05:06 14.7 °C 10.9 °C 78 % 4 km/h (7 km/h) 0 mm0 mm 60000 m 1022.5 hPa
05:00 14.7 °C 10.9 °C 78 % 5 km/h (7 km/h) 0 mm0 mm 60000 m 1022.5 hPa
04:54 14.9 °C 10.9 °C 77 % 4 km/h (7 km/h) 0 mm0 mm 60000 m 1022.4 hPa
04:48 14.9 °C 11.1 °C 78 % 4 km/h (6 km/h) 0 mm0 mm 60000 m 1022.3 hPa
04:42 15.1 °C 11.1 °C 77 % 6 km/h (10 km/h) 0 mm0 mm 60000 m 1022.3 hPa
04:36 15.2 °C 11.2 °C 77 % 7 km/h (10 km/h) 0 mm0 mm 60000 m 1022.3 hPa
04:30 15.2 °C 11 °C 76 % 5 km/h (8 km/h) 0 mm0 mm 60000 m 1022.3 hPa
04:24 15.4 °C 11.4 °C 77 % 3 km/h (5 km/h) 0 mm0 mm 60000 m 1022.2 hPa
04:18 15.4 °C 11.4 °C 77 % 2 km/h (4 km/h) 0 mm0 mm 60000 m 1022.2 hPa
04:12 15.5 °C 11.3 °C 76 % 0 km/h (3 km/h) 0 mm0 mm 60000 m 1022 hPa
04:06 15.5 °C 11.3 °C 76 % 3 km/h (5 km/h) 0 mm0 mm 60000 m 1022 hPa
04:00 15.7 °C 11.3 °C 75 % 3 km/h (5 km/h) 0 mm0 mm 60000 m 1022 hPa
03:54 15.9 °C 11.5 °C 75 % 5 km/h (8 km/h) 0 mm0 mm 60000 m 1022 hPa
03:48 16 °C 11.8 °C 76 % 5 km/h (8 km/h) 0 mm0 mm 60000 m 1022 hPa
03:42 15.9 °C 11.3 °C 74 % 3 km/h (5 km/h) 0 mm0 mm 60000 m 1021.9 hPa
03:36 16.1 °C 11.7 °C 75 % 4 km/h (6 km/h) 0 mm0 mm 60000 m 1021.8 hPa
03:30 16.3 °C 11.4 °C 73 % 3 km/h (6 km/h) 0 mm0 mm 60000 m 1021.9 hPa
03:24 16.4 °C 11.5 °C 73 % 0 km/h (2 km/h) 0 mm0 mm 60000 m 1021.7 hPa
03:18 16.5 °C 11.6 °C 73 % 0 km/h (3 km/h) 0 mm0 mm 60000 m 1021.8 hPa
03:12 16.7 °C 11.6 °C 72 % 0 km/h (3 km/h) 0 mm0 mm 60000 m 1021.8 hPa
03:06 17 °C 11.7 °C 71 % 0 km/h (3 km/h) 0 mm0 mm 60000 m 1021.9 hPa
03:00 17.3 °C 11.6 °C 69 % 0 km/h (3 km/h) 0 mm0 mm 60000 m 1021.8 hPa
02:54 17.7 °C 11.9 °C 69 % 0 km/h (3 km/h) 0 mm0 mm 60000 m 1021.9 hPa
02:48 17.8 °C 11.8 °C 68 % 0 km/h (2 km/h) 0 mm0 mm 60000 m 1021.9 hPa
02:42 18.1 °C 11.9 °C 67 % 0 km/h (3 km/h) 0 mm0 mm 60000 m 1021.8 hPa
02:36 18.4 °C 11.9 °C 66 % 2 km/h (3 km/h) 0 mm0 mm 60000 m 1021.8 hPa
02:30 18.6 °C 12.1 °C 66 % 2 km/h (4 km/h) 0 mm0 mm 60000 m 1021.7 hPa
02:24 18.8 °C 12.1 °C 65 % 2 km/h (4 km/h) 0 mm0 mm 60000 m 1021.6 hPa
02:18 19 °C 12 °C 64 % 4 km/h (7 km/h) 0 mm0 mm 60000 m 1021.7 hPa
02:12 19.5 °C 12 °C 62 % 6 km/h (9 km/h) 0 mm0 mm 60000 m 1021.8 hPa
02:06 19.9 °C 12.2 °C 61 % 7 km/h (9 km/h) 0 mm0 mm 60000 m 1021.7 hPa
02:00 20.1 °C 12.3 °C 61 % 7 km/h (9 km/h) 0 mm0 mm 60000 m 1021.7 hPa
01:54 20 °C 12.2 °C 61 % 7 km/h (8 km/h) 0 mm0 mm 60000 m 1021.6 hPa
01:48 20.1 °C 12.3 °C 61 % 8 km/h (9 km/h) 0 mm0 mm 60000 m 1021.6 hPa
01:42 20.1 °C 12.3 °C 61 % 8 km/h (9 km/h) 0 mm0 mm 60000 m 1021.5 hPa
01:36 20 °C 12.2 °C 61 % 9 km/h (12 km/h) 0 mm0 mm 60000 m 1021.5 hPa
01:30 20.3 °C 12.5 °C 61 % 11 km/h (12 km/h) 0 mm0 mm 60000 m 1021.4 hPa
01:24 20.6 °C 12.6 °C 60 % 11 km/h (13 km/h) 0 mm0 mm 60000 m 1021.4 hPa
01:18 20.7 °C 12.4 °C 59 % 11 km/h (14 km/h) 0 mm0 mm 60000 m 1021.4 hPa
01:12 20.7 °C 12.4 °C 59 % 10 km/h (12 km/h) 0 mm0 mm 60000 m 1021.4 hPa
01:06 20.7 °C 12.4 °C 59 % 10 km/h (12 km/h) 0 mm0 mm 60000 m 1021.3 hPa
01:00 20.9 °C 12.3 °C 58 % 11 km/h (14 km/h) 0 mm0 mm 60000 m 1021.2 hPa
00:54 21.1 °C 12.5 °C 58 % 12 km/h (14 km/h) 0 mm0 mm 60000 m 1021.1 hPa
00:48 20.9 °C 12.6 °C 59 % 12 km/h (14 km/h) 0 mm0 mm 60000 m 1021.1 hPa
00:42 21.3 °C 12.7 °C 58 % 12 km/h (15 km/h) 0 mm0 mm 60000 m 1020.9 hPa
00:36 21.7 °C 12.5 °C 56 % 13 km/h (16 km/h) 0 mm0 mm 60000 m 1020.9 hPa
00:30 21.3 °C 12.7 °C 58 % 13 km/h (16 km/h) 0 mm0 mm 60000 m 1020.9 hPa
00:24 21.3 °C 12.7 °C 58 % 13 km/h (14 km/h) 0 mm0 mm 60000 m 1020.9 hPa
00:18 21.3 °C 12.4 °C 57 % 13 km/h (15 km/h) 0 mm0 mm 60000 m 1021 hPa
00:12 21.6 °C 12.4 °C 56 % 12 km/h (15 km/h) 0 mm0 mm 60000 m 1020.9 hPa
00:06 21.7 °C 12.5 °C 56 % 12 km/h (14 km/h) 0 mm0 mm 60000 m 1020.9 hPa
00:00 21.8 °C 12.4 °C 55 % 12 km/h (14 km/h) 0 mm0 mm 60000 m 1020.9 hPa

Données via Météo-France

Relevés météo à Brive-Souillac

Cette page rassemble les observations de la station de Brive-Souillac : température, humidité, vent, précipitations et pression atmosphérique. Les graphiques facilitent le suivi de la journée, tandis que le tableau donne accès aux mesures horaires et infra-horaires disponibles.

Pour replacer ces mesures dans leur contexte, consultez la climatologie de Brive-Souillac ainsi que ses normales et records. Retrouvez aussi la carte des observations météo en temps réel.